Airfield :
LOGIN :

Register | Disclaimer

   EN    FR    IT 

 










Legend :    VFR   Marginal VFR   IFR   Intensive IFR   Very Intensive IFR
Visi :
Ceiling :
>= 8 km
>= 3000ft
5 to 8 km
1000 to 3000 ft
1500m to 5 km
500 to 1000 ft
800 to 1500m
200 to 500 ft
< 800m
< 200 ft
Symbols :   Thunderstorms  Fog  Heavy snow  Heavy precipitations  Wind > 20 kt
SIGMETs :     Misc.  Thunderstorms  Icing  Turbulence  Mountain Waves  Volcanic Ashes






- Airport Elevation : 32 ft
- IATA code : LKZ


EGUL - RAF Lakenheath

CURRENT METAR :
  • 170609Z AUTO 19004KT 1000 R24/1100VP1500 HZ VV001 13/10 A2994 RMK AO2 CIG 000 RWY06 SLP142 $

EXPIRED METARs :
  • 170556Z 18004KT 0400 R24/1000V1100 FG VV001 13/10 A2994 RMK AO2A CIG 000 RWY06 SLP142 T01260103 10158 20114 55004 $
  • 170531Z 19003KT 0800 FG OVC003 12/10 A2994 RMK AO2A VIS 2000V4400 VIS 0400 RWY06 CIG 002 RWY06 SLP142 $
  • 170520Z 20005KT 0800 FG BKN004 12/10 A2994 RMK VIS 2000 RWY06 CIG 002 RWY06 SLP142 57006 $
  • 170456Z 18003KT 6000 BR SCT006 12/10 A2994 RMK AO2A SLP142 T01200099 $
  • 170356Z 00000KT 8000 BR SCT030 12/10 A2994 RMK AO2A SLP142 T01210097 $

TAF AMD TAF EGUL
Valid from the 17 at 05:00 until the 18 at 11:00 UTC


170547Z 1705/1811 20006KT 3200 BR FEW006 SCT040 BKN200 QNH2994INS
TEMPO 1705/1708 0400 FG BKN003 BKN015
TEMPO 1708/1711 6000 BKN010 BKN020
BECMG 1710/1711 22012KT 9999 NSW SCT025 BKN050 QNH2997INS
TEMPO 1711/1714 BKN020
BECMG 1717/1718 20009KT 9999 SCT050 QNH2992INS
BECMG 1721/1722 20006KT 8000 BR SCT040 BKN200 QNH2995INS
BECMG 1802/1803 18006KT 5000 BR SCT004 BKN200 QNH2995INS
TEMPO 1805/1808 3200 BR BKN004
BECMG 1810/1811 18012KT 9999 NSW FEW015 SCT050 QNH2997INS TX20/1715Z TN12/1705Z



MET'MAP, your aeronautical weather chart ! - Copyright ORBIFLY December 2007 - Disclaimer

ORBIFLY MET'MAP TEAM :

Programming & Development : Alexandra Zaïnal
Concept & original design : Baudouin d'Aumeries
Assistance for programming : Marc-Olivier Méhu
Technical & hardware support : Manuel Goepfert

Contact : metmap@orbifly.com




SOURCES & CREDITS :

   NOAA